createdAt,value
2022-08-14T00:01:32.802Z,24.3
2022-08-14T00:04:32.809Z,24.2
2022-08-14T00:07:32.807Z,24.2
2022-08-14T00:10:32.815Z,24.2
2022-08-14T00:13:32.813Z,24.1
2022-08-14T00:16:32.821Z,24.1
2022-08-14T00:19:32.840Z,24
2022-08-14T00:22:32.841Z,24
2022-08-14T00:25:32.841Z,24
2022-08-14T00:28:32.850Z,23.9
2022-08-14T00:31:32.862Z,23.9
2022-08-14T00:34:32.852Z,23.9
2022-08-14T00:37:32.857Z,23.8
2022-08-14T00:40:32.877Z,23.8
2022-08-14T00:43:32.906Z,23.7
2022-08-14T00:46:32.875Z,23.7
2022-08-14T00:49:32.876Z,23.6
2022-08-14T00:52:32.887Z,23.6
2022-08-14T00:55:32.893Z,23.6
2022-08-14T00:58:32.899Z,23.6
2022-08-14T01:01:32.913Z,23.5
2022-08-14T01:04:32.910Z,23.5
2022-08-14T01:07:32.926Z,23.5
2022-08-14T01:10:32.925Z,23.5
2022-08-14T01:13:32.920Z,23.4
2022-08-14T01:16:32.947Z,23.4
2022-08-14T01:19:32.953Z,23.4
2022-08-14T01:22:33.039Z,23.4
2022-08-14T01:25:32.928Z,23.3
2022-08-14T01:28:32.949Z,23.3
2022-08-14T01:31:32.934Z,23.3
2022-08-14T01:34:32.958Z,23.2
2022-08-14T01:37:33.044Z,23.2
2022-08-14T01:40:32.961Z,23.2
2022-08-14T01:43:32.973Z,23.2
2022-08-14T01:46:32.979Z,23.2
2022-08-14T01:49:32.974Z,23.2
2022-08-14T01:52:33.520Z,23.1
2022-08-14T01:55:32.991Z,23.1
2022-08-14T01:58:32.967Z,23.1
2022-08-14T02:01:33.041Z,23.1
2022-08-14T02:04:32.996Z,23
2022-08-14T02:07:32.982Z,23
2022-08-14T02:10:33.001Z,23
2022-08-14T02:13:32.989Z,23
2022-08-14T02:16:33.005Z,22.9
2022-08-14T02:19:33.010Z,22.9
2022-08-14T02:22:33.017Z,22.9
2022-08-14T02:25:33.014Z,22.8
2022-08-14T02:28:33.041Z,22.8
2022-08-14T02:31:33.021Z,22.8
2022-08-14T02:34:33.030Z,22.8
2022-08-14T02:37:33.022Z,22.8
2022-08-14T02:40:33.028Z,22.7
2022-08-14T02:43:33.038Z,22.7
2022-08-14T02:46:33.087Z,22.7
2022-08-14T02:49:33.049Z,22.6
2022-08-14T02:52:40.601Z,22.6
2022-08-14T02:55:33.067Z,22.6
2022-08-14T02:58:33.063Z,22.6
2022-08-14T03:01:33.078Z,22.6
2022-08-14T03:04:33.096Z,22.5
2022-08-14T03:07:33.092Z,22.5
2022-08-14T03:10:33.091Z,22.5
2022-08-14T03:13:33.088Z,22.4
2022-08-14T03:16:33.103Z,22.4
2022-08-14T03:19:33.100Z,22.4
2022-08-14T03:22:33.111Z,22.4
2022-08-14T03:25:33.137Z,22.4
2022-08-14T03:28:33.114Z,22.3
2022-08-14T03:31:33.198Z,22.3
2022-08-14T03:34:33.118Z,22.3
2022-08-14T03:37:33.135Z,22.3
2022-08-14T03:40:33.148Z,22.3
2022-08-14T03:43:33.140Z,22.2
2022-08-14T03:46:33.173Z,22.2
2022-08-14T03:49:33.151Z,22.2
2022-08-14T03:52:33.184Z,22.2
2022-08-14T03:55:33.177Z,22.2
2022-08-14T03:58:33.156Z,22.2
2022-08-14T04:01:33.170Z,22.2
2022-08-14T04:04:33.181Z,22.1
2022-08-14T04:07:33.172Z,22.1
2022-08-14T04:10:33.185Z,22.1
2022-08-14T04:13:33.189Z,22.1
2022-08-14T04:16:33.195Z,22.1
2022-08-14T04:19:33.192Z,22
2022-08-14T04:22:33.211Z,22
2022-08-14T04:25:33.235Z,22
2022-08-14T04:28:33.213Z,22
2022-08-14T04:31:33.219Z,22
2022-08-14T04:34:33.229Z,22
2022-08-14T04:37:33.222Z,21.9
2022-08-14T04:40:33.275Z,21.9
2022-08-14T04:43:33.256Z,21.9
2022-08-14T04:46:33.250Z,21.9
2022-08-14T04:49:33.246Z,21.9
2022-08-14T04:52:33.283Z,21.9
2022-08-14T04:55:33.252Z,21.8
2022-08-14T04:58:33.277Z,21.8
2022-08-14T05:01:33.273Z,21.8
2022-08-14T05:04:33.268Z,21.8
2022-08-14T05:07:33.273Z,21.8
2022-08-14T05:13:33.284Z,21.8
2022-08-14T05:16:33.315Z,21.8
2022-08-14T05:19:33.305Z,21.8
2022-08-14T05:22:33.300Z,21.7
2022-08-14T05:25:33.319Z,21.8
2022-08-14T05:28:33.310Z,21.8
2022-08-14T05:31:33.325Z,21.8
2022-08-14T05:34:33.324Z,21.8
2022-08-14T05:37:33.312Z,21.8
2022-08-14T05:40:33.326Z,21.9
2022-08-14T05:43:33.380Z,21.9
2022-08-14T05:46:33.347Z,21.9
2022-08-14T05:49:33.344Z,21.9
2022-08-14T05:52:33.354Z,22
2022-08-14T05:55:33.351Z,22
2022-08-14T05:58:33.366Z,22.1
2022-08-14T06:01:33.352Z,22.1
2022-08-14T06:04:33.377Z,22.1
2022-08-14T06:07:33.382Z,22.2
2022-08-14T06:10:33.389Z,22.2
2022-08-14T06:13:33.388Z,22.3
2022-08-14T06:16:33.390Z,22.3
2022-08-14T06:19:33.408Z,22.4
2022-08-14T06:22:33.406Z,22.4
2022-08-14T06:25:33.401Z,22.4
2022-08-14T06:28:33.415Z,22.4
2022-08-14T06:31:33.427Z,22.4
2022-08-14T06:34:33.431Z,22.4
2022-08-14T06:37:33.442Z,22.5
2022-08-14T06:40:33.449Z,22.5
2022-08-14T06:43:33.434Z,22.5
2022-08-14T06:46:33.442Z,22.5
2022-08-14T06:49:33.472Z,22.5
2022-08-14T06:52:33.450Z,22.6
2022-08-14T06:55:33.457Z,22.6
2022-08-14T06:58:33.466Z,22.6
2022-08-14T07:01:33.468Z,22.6
2022-08-14T07:04:33.495Z,22.7
2022-08-14T07:07:33.467Z,22.7
2022-08-14T07:10:33.477Z,22.8
2022-08-14T07:13:33.477Z,22.8
2022-08-14T07:16:33.492Z,22.8
2022-08-14T07:19:33.523Z,22.9
2022-08-14T07:22:33.507Z,22.9
2022-08-14T07:25:33.514Z,22.9
2022-08-14T07:28:33.559Z,23
2022-08-14T07:31:33.511Z,23
2022-08-14T07:34:33.528Z,23
2022-08-14T07:37:33.541Z,23.1
2022-08-14T07:40:33.550Z,23.1
2022-08-14T07:43:33.541Z,23.2
2022-08-14T07:46:33.572Z,23.2
2022-08-14T07:49:33.548Z,23.3
2022-08-14T07:52:33.552Z,23.4
2022-08-14T07:55:33.560Z,23.4
2022-08-14T07:58:33.552Z,23.5
2022-08-14T08:01:33.547Z,23.5
2022-08-14T08:04:33.565Z,23.6
2022-08-14T08:07:33.581Z,23.7
2022-08-14T08:10:33.570Z,23.8
2022-08-14T08:13:33.576Z,23.9
2022-08-14T08:16:33.606Z,23.9
2022-08-14T08:19:33.595Z,24
2022-08-14T08:22:33.588Z,24.1
2022-08-14T08:25:33.608Z,24.2
2022-08-14T08:28:33.602Z,24.3
2022-08-14T08:31:33.601Z,24.4
2022-08-14T08:34:33.619Z,24.5
2022-08-14T08:37:33.616Z,24.5
2022-08-14T08:40:33.601Z,24.6
2022-08-14T08:43:33.665Z,24.7
2022-08-14T08:46:33.635Z,24.8
2022-08-14T08:49:33.633Z,24.9
2022-08-14T08:52:33.692Z,25
2022-08-14T08:55:33.657Z,25.1
2022-08-14T08:58:33.681Z,25.2
2022-08-14T09:01:33.664Z,25.2
2022-08-14T09:04:33.667Z,25.3
2022-08-14T09:07:33.687Z,25.4
2022-08-14T09:10:33.680Z,25.5
2022-08-14T09:13:33.659Z,25.5
2022-08-14T09:16:33.692Z,25.6
2022-08-14T09:19:33.697Z,25.7
2022-08-14T09:22:33.672Z,25.8
2022-08-14T09:25:33.689Z,25.9
2022-08-14T09:28:33.697Z,26
2022-08-14T09:31:33.692Z,26
2022-08-14T09:34:33.699Z,26.1
2022-08-14T09:37:33.693Z,26.1
2022-08-14T09:40:33.708Z,26.2
2022-08-14T09:43:33.700Z,26.2
2022-08-14T09:46:35.212Z,26.2
2022-08-14T09:49:35.678Z,26.3
2022-08-14T09:52:33.717Z,26.3
2022-08-14T09:55:33.734Z,26.4
2022-08-14T09:58:33.738Z,26.4
2022-08-14T10:01:33.761Z,26.5
2022-08-14T10:04:33.761Z,26.5
2022-08-14T10:07:33.753Z,26.6
2022-08-14T10:10:33.749Z,26.6
2022-08-14T10:13:33.755Z,26.8
2022-08-14T10:16:33.775Z,26.8
2022-08-14T10:19:33.771Z,26.9
2022-08-14T10:22:33.788Z,27.1
2022-08-14T10:25:33.842Z,27.2
2022-08-14T10:28:33.782Z,27.3
2022-08-14T10:31:33.825Z,27.4
2022-08-14T10:34:33.786Z,27.6
2022-08-14T10:37:33.836Z,27.7
2022-08-14T10:40:33.814Z,27.8
2022-08-14T10:43:33.837Z,27.9
2022-08-14T10:46:33.841Z,28.1
2022-08-14T10:49:33.843Z,28.2
2022-08-14T10:52:33.828Z,28.3
2022-08-14T10:55:33.835Z,28.5
2022-08-14T10:58:33.855Z,28.7
2022-08-14T11:01:33.847Z,28.9
2022-08-14T11:04:37.455Z,29.1
2022-08-14T11:07:33.836Z,29.4
2022-08-14T11:10:33.856Z,29.6
2022-08-14T11:13:33.855Z,29.9
2022-08-14T11:16:33.876Z,30.2
2022-08-14T11:19:33.886Z,30.5
2022-08-14T11:22:33.889Z,30.7
2022-08-14T11:25:33.896Z,31
2022-08-14T11:28:33.888Z,31.2
2022-08-14T11:31:33.888Z,31.4
2022-08-14T11:34:33.899Z,31.6
2022-08-14T11:37:33.914Z,31.8
2022-08-14T11:40:33.933Z,32
2022-08-14T11:43:33.929Z,32.2
2022-08-14T11:46:33.915Z,32.4
2022-08-14T11:49:33.968Z,32.6
2022-08-14T11:52:33.937Z,32.8
2022-08-14T11:55:33.989Z,33
2022-08-14T11:58:33.950Z,33.2
2022-08-14T12:01:33.972Z,33.4
2022-08-14T12:04:33.956Z,33.7
2022-08-14T12:07:33.959Z,34
2022-08-14T12:10:33.959Z,34.2
2022-08-14T12:13:33.960Z,34.4
2022-08-14T12:16:33.994Z,34.6
2022-08-14T12:19:33.975Z,34.9
2022-08-14T12:22:33.987Z,35.1
2022-08-14T12:25:33.997Z,35.4
2022-08-14T12:28:33.998Z,35.6
2022-08-14T12:31:34.008Z,35.8
2022-08-14T12:34:34.003Z,36
2022-08-14T12:37:34.001Z,36.2
2022-08-14T12:40:34.022Z,36.3
2022-08-14T12:43:34.010Z,36.5
2022-08-14T12:46:34.034Z,36.7
2022-08-14T12:49:34.034Z,36.8
2022-08-14T12:52:34.062Z,37
2022-08-14T12:55:34.052Z,37.3
2022-08-14T12:58:34.047Z,37.5
2022-08-14T13:01:34.057Z,37.7
2022-08-14T13:04:34.079Z,37.9
2022-08-14T13:07:34.053Z,38.1
2022-08-14T13:10:34.056Z,38.1
2022-08-14T13:13:34.075Z,38.3
2022-08-14T13:16:34.070Z,38.5
2022-08-14T13:19:34.111Z,38.6
2022-08-14T13:22:34.079Z,38.8
2022-08-14T13:25:34.091Z,39
2022-08-14T13:28:34.081Z,39.1
2022-08-14T13:31:34.096Z,39.1
2022-08-14T13:34:34.104Z,39.3
2022-08-14T13:37:34.118Z,39.4
2022-08-14T13:40:34.111Z,39.5
2022-08-14T13:43:34.124Z,39.7
2022-08-14T13:46:34.155Z,39.9
2022-08-14T13:49:34.115Z,39.9
2022-08-14T13:52:34.131Z,40.1
2022-08-14T13:55:34.140Z,40.2
2022-08-14T13:58:34.135Z,40.3
2022-08-14T14:01:34.157Z,40.5
2022-08-14T14:04:34.154Z,40.7
2022-08-14T14:07:34.147Z,40.8
2022-08-14T14:10:34.191Z,40.8
2022-08-14T14:13:34.158Z,40.9
2022-08-14T14:16:34.181Z,41
2022-08-14T14:19:34.176Z,41
2022-08-14T14:22:34.156Z,41.1
2022-08-14T14:25:34.176Z,41.2
2022-08-14T14:28:34.176Z,41.2
2022-08-14T14:31:34.187Z,41.3
2022-08-14T14:34:34.203Z,41.3
2022-08-14T14:37:34.191Z,41.4
2022-08-14T14:40:34.185Z,41.5
2022-08-14T14:43:34.257Z,41.6
2022-08-14T14:46:34.213Z,41.5
2022-08-14T14:49:34.218Z,41.7
2022-08-14T14:52:34.213Z,41.7
2022-08-14T14:55:34.203Z,41.8
2022-08-14T14:58:34.224Z,41.8
2022-08-14T15:01:34.249Z,41.9
2022-08-14T15:04:34.222Z,42
2022-08-14T15:07:34.238Z,42
2022-08-14T15:10:34.246Z,42.1
2022-08-14T15:13:34.242Z,42
2022-08-14T15:16:34.263Z,42
2022-08-14T15:19:34.259Z,42
2022-08-14T15:22:34.287Z,42
2022-08-14T15:25:34.267Z,42
2022-08-14T15:31:34.266Z,42
2022-08-14T15:34:34.279Z,42.1
2022-08-14T15:37:34.267Z,42
2022-08-14T15:40:34.284Z,42
2022-08-14T15:43:34.288Z,41.9
2022-08-14T15:46:34.291Z,41.8
2022-08-14T15:49:34.308Z,41.8
2022-08-14T15:52:34.309Z,41.8
2022-08-14T15:55:34.318Z,41.8
2022-08-14T15:58:34.340Z,41.7
2022-08-14T16:01:34.327Z,41.7
2022-08-14T16:04:34.322Z,41.6
2022-08-14T16:07:34.314Z,41.6
2022-08-14T16:10:34.329Z,41.6
2022-08-14T16:13:34.318Z,41.6
2022-08-14T16:16:34.328Z,41.6
2022-08-14T16:19:34.413Z,41.6
2022-08-14T16:22:34.328Z,41.6
2022-08-14T16:25:34.350Z,41.6
2022-08-14T16:28:34.373Z,41.6
2022-08-14T16:31:34.390Z,41.6
2022-08-14T16:34:34.357Z,41.5
2022-08-14T16:37:34.358Z,41.5
2022-08-14T16:40:34.365Z,41.4
2022-08-14T16:43:34.373Z,41.4
2022-08-14T16:46:34.414Z,41.4
2022-08-14T16:49:34.401Z,41.3
2022-08-14T16:52:34.393Z,41.3
2022-08-14T16:55:34.402Z,41.2
2022-08-14T16:58:34.424Z,41.2
2022-08-14T17:01:34.416Z,41.1
2022-08-14T17:04:34.412Z,41
2022-08-14T17:07:34.450Z,40.9
2022-08-14T17:10:34.427Z,40.9
2022-08-14T17:13:34.422Z,40.9
2022-08-14T17:16:35.481Z,40.7
2022-08-14T17:19:34.434Z,40.5
2022-08-14T17:22:34.489Z,40.2
2022-08-14T17:25:34.469Z,40.1
2022-08-14T17:28:34.441Z,39.9
2022-08-14T17:31:34.447Z,39.8
2022-08-14T17:34:34.468Z,39.6
2022-08-14T17:37:34.487Z,39.4
2022-08-14T17:40:34.488Z,39.1
2022-08-14T17:43:34.488Z,38.8
2022-08-14T17:46:34.457Z,38.6
2022-08-14T17:49:34.485Z,38.4
2022-08-14T17:52:34.468Z,38
2022-08-14T17:55:34.463Z,37.6
2022-08-14T17:58:34.470Z,37.2
2022-08-14T18:01:34.505Z,36.9
2022-08-14T18:04:34.515Z,36.5
2022-08-14T18:07:34.501Z,36.3
2022-08-14T18:10:34.523Z,36
2022-08-14T18:13:34.493Z,35.7
2022-08-14T18:16:34.542Z,35.4
2022-08-14T18:19:34.510Z,35.2
2022-08-14T18:22:34.533Z,35
2022-08-14T18:25:34.564Z,34.6
2022-08-14T18:28:34.572Z,34.3
2022-08-14T18:31:34.534Z,34
2022-08-14T18:34:34.538Z,33.6
2022-08-14T18:37:34.542Z,33.4
2022-08-14T18:40:34.547Z,33.2
2022-08-14T18:43:34.563Z,33
2022-08-14T18:46:34.548Z,32.8
2022-08-14T18:49:34.585Z,32.6
2022-08-14T18:52:34.628Z,32.3
2022-08-14T18:55:34.576Z,32.1
2022-08-14T18:58:34.604Z,31.9
2022-08-14T19:01:34.650Z,31.6
2022-08-14T19:04:34.598Z,31.4
2022-08-14T19:07:34.647Z,31.2
2022-08-14T19:10:34.641Z,31
2022-08-14T19:13:34.633Z,30.7
2022-08-14T19:16:34.658Z,30.5
2022-08-14T19:19:34.657Z,30.4
2022-08-14T19:22:34.657Z,30.1
2022-08-14T19:25:34.632Z,30
2022-08-14T19:28:34.650Z,29.8
2022-08-14T19:31:34.649Z,29.6
2022-08-14T19:34:34.655Z,29.4
2022-08-14T19:37:34.658Z,29.3
2022-08-14T19:40:34.718Z,29.1
2022-08-14T19:43:34.678Z,29
2022-08-14T19:46:34.680Z,28.9
2022-08-14T19:49:34.687Z,28.7
2022-08-14T19:52:34.704Z,28.6
2022-08-14T19:55:34.713Z,28.5
2022-08-14T19:58:34.699Z,28.3
2022-08-14T20:01:34.702Z,28.2
2022-08-14T20:04:34.700Z,28.1
2022-08-14T20:07:34.737Z,27.9
2022-08-14T20:10:34.711Z,27.8
2022-08-14T20:13:34.741Z,27.7
2022-08-14T20:16:34.746Z,27.6
2022-08-14T20:19:34.766Z,27.5
2022-08-14T20:22:34.743Z,27.4
2022-08-14T20:25:34.786Z,27.3
2022-08-14T20:28:34.761Z,27.1
2022-08-14T20:31:34.751Z,27
2022-08-14T20:34:34.773Z,26.9
2022-08-14T20:37:34.803Z,26.8
2022-08-14T20:40:34.811Z,26.7
2022-08-14T20:43:34.811Z,26.6
2022-08-14T20:46:34.818Z,26.5
2022-08-14T20:49:34.810Z,26.4
2022-08-14T20:52:34.781Z,26.3
2022-08-14T20:55:34.806Z,26.2
2022-08-14T20:58:34.808Z,26.2
2022-08-14T21:01:34.822Z,26.1
2022-08-14T21:04:34.820Z,26
2022-08-14T21:07:34.813Z,25.9
2022-08-14T21:10:34.850Z,25.8
2022-08-14T21:13:34.837Z,25.7
2022-08-14T21:16:34.844Z,25.6
2022-08-14T21:19:34.871Z,25.6
2022-08-14T21:22:34.832Z,25.5
2022-08-14T21:25:34.874Z,25.4
2022-08-14T21:28:34.853Z,25.3
2022-08-14T21:31:34.892Z,25.3
2022-08-14T21:34:34.859Z,25.2
2022-08-14T21:37:34.864Z,25.1
2022-08-14T21:40:34.913Z,25
2022-08-14T21:43:34.870Z,25
2022-08-14T21:46:34.907Z,24.9
2022-08-14T21:49:34.878Z,24.8
2022-08-14T21:52:34.885Z,24.8
2022-08-14T21:55:34.888Z,24.7
2022-08-14T21:58:38.356Z,24.6
2022-08-14T22:01:34.904Z,24.5
2022-08-14T22:04:34.919Z,24.5
2022-08-14T22:07:35.586Z,24.3
2022-08-14T22:10:34.949Z,24.2
2022-08-14T22:13:34.931Z,24.1
2022-08-14T22:16:34.921Z,24
2022-08-14T22:19:34.924Z,23.9
2022-08-14T22:22:34.922Z,23.9
2022-08-14T22:25:34.929Z,23.7
2022-08-14T22:28:34.950Z,23.7
2022-08-14T22:31:34.952Z,23.5
2022-08-14T22:34:34.942Z,23.5
2022-08-14T22:37:34.952Z,23.4
2022-08-14T22:40:34.963Z,23.3
2022-08-14T22:43:34.967Z,23.2
2022-08-14T22:46:35.019Z,23.1
2022-08-14T22:49:34.993Z,23
2022-08-14T22:52:35.034Z,23
2022-08-14T22:55:35.019Z,22.9
2022-08-14T22:58:34.992Z,22.8
2022-08-14T23:01:35.010Z,22.7
2022-08-14T23:04:35.051Z,22.7
2022-08-14T23:07:35.025Z,22.7
2022-08-14T23:10:35.069Z,22.6
2022-08-14T23:13:35.062Z,22.6
2022-08-14T23:16:35.061Z,22.5
2022-08-14T23:19:35.039Z,22.5
2022-08-14T23:22:35.090Z,22.5
2022-08-14T23:25:35.055Z,22.4
2022-08-14T23:28:35.090Z,22.4
2022-08-14T23:31:35.075Z,22.3
2022-08-14T23:34:35.089Z,22.3
2022-08-14T23:37:35.110Z,22.2
2022-08-14T23:40:35.074Z,22.2
2022-08-14T23:43:35.069Z,22.1
2022-08-14T23:46:35.109Z,22
2022-08-14T23:49:35.113Z,22
2022-08-14T23:52:35.103Z,21.9
2022-08-14T23:55:35.137Z,21.9
2022-08-14T23:58:35.100Z,21.8
